sensor_id;sensor_type;location;lat;lon;timestamp;P1;durP1;ratioP1;P2;durP2;ratioP2
62933;SDS011;49038;47.600;19.242;2023-06-10T00:00:43;2.53;;;2.08;;
62933;SDS011;49038;47.600;19.242;2023-06-10T00:03:46;3.62;;;1.90;;
62933;SDS011;49038;47.600;19.242;2023-06-10T00:06:48;2.83;;;2.00;;
62933;SDS011;49038;47.600;19.242;2023-06-10T00:09:51;2.17;;;1.70;;
62933;SDS011;49038;47.600;19.242;2023-06-10T00:12:53;2.92;;;1.70;;
62933;SDS011;49038;47.600;19.242;2023-06-10T00:15:55;3.05;;;1.85;;
62933;SDS011;49038;47.600;19.242;2023-06-10T00:18:59;2.50;;;1.65;;
62933;SDS011;49038;47.600;19.242;2023-06-10T00:22:03;2.50;;;1.80;;
62933;SDS011;49038;47.600;19.242;2023-06-10T00:25:06;2.55;;;1.83;;
62933;SDS011;49038;47.600;19.242;2023-06-10T00:28:10;1.77;;;1.42;;
62933;SDS011;49038;47.600;19.242;2023-06-10T00:31:12;1.98;;;1.65;;
62933;SDS011;49038;47.600;19.242;2023-06-10T00:34:14;2.65;;;1.70;;
62933;SDS011;49038;47.600;19.242;2023-06-10T00:37:16;2.22;;;1.80;;
62933;SDS011;49038;47.600;19.242;2023-06-10T00:40:18;3.53;;;2.15;;
62933;SDS011;49038;47.600;19.242;2023-06-10T00:43:21;3.80;;;1.95;;
62933;SDS011;49038;47.600;19.242;2023-06-10T00:46:23;1.87;;;1.73;;
62933;SDS011;49038;47.600;19.242;2023-06-10T00:49:27;2.37;;;1.60;;
62933;SDS011;49038;47.600;19.242;2023-06-10T00:52:29;4.40;;;1.77;;
62933;SDS011;49038;47.600;19.242;2023-06-10T00:55:32;3.05;;;2.00;;
62933;SDS011;49038;47.600;19.242;2023-06-10T00:58:35;2.83;;;1.87;;
62933;SDS011;49038;47.600;19.242;2023-06-10T01:01:37;5.37;;;1.70;;
62933;SDS011;49038;47.600;19.242;2023-06-10T01:04:41;2.62;;;1.90;;
62933;SDS011;49038;47.600;19.242;2023-06-10T01:11:06;2.60;;;1.45;;
62933;SDS011;49038;47.600;19.242;2023-06-10T01:14:10;6.53;;;1.90;;
62933;SDS011;49038;47.600;19.242;2023-06-10T01:17:14;6.05;;;2.20;;
62933;SDS011;49038;47.600;19.242;2023-06-10T01:20:18;4.70;;;2.55;;
62933;SDS011;49038;47.600;19.242;2023-06-10T01:23:21;2.92;;;2.03;;
62933;SDS011;49038;47.600;19.242;2023-06-10T01:26:24;2.85;;;2.10;;
62933;SDS011;49038;47.600;19.242;2023-06-10T01:29:32;3.08;;;2.20;;
62933;SDS011;49038;47.600;19.242;2023-06-10T01:32:44;12.00;;;2.22;;
62933;SDS011;49038;47.600;19.242;2023-06-10T01:35:47;7.40;;;2.12;;
62933;SDS011;49038;47.600;19.242;2023-06-10T01:38:50;5.12;;;2.00;;
62933;SDS011;49038;47.600;19.242;2023-06-10T01:41:55;14.70;;;2.12;;
62933;SDS011;49038;47.600;19.242;2023-06-10T01:44:57;11.68;;;1.80;;
62933;SDS011;49038;47.600;19.242;2023-06-10T01:48:00;26.05;;;2.40;;
62933;SDS011;49038;47.600;19.242;2023-06-10T01:51:03;20.08;;;1.95;;
62933;SDS011;49038;47.600;19.242;2023-06-10T01:54:05;12.82;;;2.20;;
62933;SDS011;49038;47.600;19.242;2023-06-10T01:57:08;10.60;;;1.90;;
62933;SDS011;49038;47.600;19.242;2023-06-10T02:00:10;4.90;;;1.92;;
62933;SDS011;49038;47.600;19.242;2023-06-10T02:03:13;5.35;;;2.12;;
62933;SDS011;49038;47.600;19.242;2023-06-10T02:06:16;2.85;;;1.92;;
62933;SDS011;49038;47.600;19.242;2023-06-10T02:09:18;7.07;;;2.42;;
62933;SDS011;49038;47.600;19.242;2023-06-10T02:12:20;2.20;;;1.83;;
62933;SDS011;49038;47.600;19.242;2023-06-10T02:15:23;7.00;;;2.17;;
62933;SDS011;49038;47.600;19.242;2023-06-10T02:18:25;3.22;;;2.10;;
62933;SDS011;49038;47.600;19.242;2023-06-10T02:21:28;2.90;;;2.00;;
62933;SDS011;49038;47.600;19.242;2023-06-10T02:24:31;3.70;;;2.53;;
62933;SDS011;49038;47.600;19.242;2023-06-10T02:27:33;8.02;;;2.87;;
62933;SDS011;49038;47.600;19.242;2023-06-10T02:30:38;3.50;;;2.55;;
62933;SDS011;49038;47.600;19.242;2023-06-10T02:33:42;3.33;;;2.30;;
62933;SDS011;49038;47.600;19.242;2023-06-10T02:36:44;3.95;;;2.50;;
62933;SDS011;49038;47.600;19.242;2023-06-10T02:39:46;3.10;;;2.40;;
62933;SDS011;49038;47.600;19.242;2023-06-10T02:42:49;4.43;;;2.62;;
62933;SDS011;49038;47.600;19.242;2023-06-10T02:45:51;6.82;;;2.55;;
62933;SDS011;49038;47.600;19.242;2023-06-10T02:48:53;6.87;;;2.53;;
62933;SDS011;49038;47.600;19.242;2023-06-10T02:51:56;3.58;;;2.45;;
62933;SDS011;49038;47.600;19.242;2023-06-10T02:54:59;3.22;;;2.30;;
62933;SDS011;49038;47.600;19.242;2023-06-10T02:58:01;5.45;;;2.53;;
62933;SDS011;49038;47.600;19.242;2023-06-10T03:01:04;5.35;;;2.00;;
62933;SDS011;49038;47.600;19.242;2023-06-10T03:04:07;2.03;;;1.70;;
62933;SDS011;49038;47.600;19.242;2023-06-10T03:07:09;5.35;;;2.05;;
62933;SDS011;49038;47.600;19.242;2023-06-10T03:10:13;5.60;;;1.87;;
62933;SDS011;49038;47.600;19.242;2023-06-10T03:13:15;3.62;;;2.22;;
62933;SDS011;49038;47.600;19.242;2023-06-10T03:16:17;2.80;;;1.90;;
62933;SDS011;49038;47.600;19.242;2023-06-10T03:19:20;3.92;;;1.42;;
62933;SDS011;49038;47.600;19.242;2023-06-10T03:22:23;4.87;;;1.40;;
62933;SDS011;49038;47.600;19.242;2023-06-10T03:25:25;1.62;;;1.50;;
62933;SDS011;49038;47.600;19.242;2023-06-10T03:28:28;2.35;;;1.58;;
62933;SDS011;49038;47.600;19.242;2023-06-10T03:31:30;1.85;;;1.67;;
62933;SDS011;49038;47.600;19.242;2023-06-10T03:34:33;2.12;;;1.80;;
62933;SDS011;49038;47.600;19.242;2023-06-10T03:37:35;2.62;;;1.98;;
62933;SDS011;49038;47.600;19.242;2023-06-10T03:40:38;3.47;;;2.15;;
62933;SDS011;49038;47.600;19.242;2023-06-10T03:43:40;3.53;;;2.22;;
62933;SDS011;49038;47.600;19.242;2023-06-10T03:46:42;2.12;;;1.70;;
62933;SDS011;49038;47.600;19.242;2023-06-10T03:49:44;3.72;;;2.28;;
62933;SDS011;49038;47.600;19.242;2023-06-10T03:52:47;4.12;;;2.60;;
62933;SDS011;49038;47.600;19.242;2023-06-10T03:55:49;3.25;;;2.03;;
62933;SDS011;49038;47.600;19.242;2023-06-10T03:58:51;3.30;;;1.98;;
62933;SDS011;49038;47.600;19.242;2023-06-10T04:01:54;5.97;;;2.60;;
62933;SDS011;49038;47.600;19.242;2023-06-10T04:04:56;3.78;;;2.08;;
62933;SDS011;49038;47.600;19.242;2023-06-10T04:07:58;8.60;;;2.75;;
62933;SDS011;49038;47.600;19.242;2023-06-10T04:11:01;5.28;;;2.33;;
62933;SDS011;49038;47.600;19.242;2023-06-10T04:14:04;17.33;;;2.78;;
62933;SDS011;49038;47.600;19.242;2023-06-10T04:17:06;6.05;;;2.12;;
62933;SDS011;49038;47.600;19.242;2023-06-10T04:20:08;3.05;;;2.42;;
62933;SDS011;49038;47.600;19.242;2023-06-10T04:23:11;3.53;;;2.25;;
62933;SDS011;49038;47.600;19.242;2023-06-10T04:26:13;2.53;;;2.08;;
62933;SDS011;49038;47.600;19.242;2023-06-10T04:29:16;3.15;;;2.30;;
62933;SDS011;49038;47.600;19.242;2023-06-10T04:32:18;2.12;;;1.70;;
62933;SDS011;49038;47.600;19.242;2023-06-10T04:35:20;3.12;;;2.40;;
62933;SDS011;49038;47.600;19.242;2023-06-10T04:38:23;2.90;;;2.05;;
62933;SDS011;49038;47.600;19.242;2023-06-10T04:41:25;2.35;;;2.05;;
62933;SDS011;49038;47.600;19.242;2023-06-10T04:44:28;12.15;;;2.20;;
62933;SDS011;49038;47.600;19.242;2023-06-10T04:47:32;3.05;;;2.28;;
62933;SDS011;49038;47.600;19.242;2023-06-10T04:50:35;3.00;;;2.12;;
62933;SDS011;49038;47.600;19.242;2023-06-10T04:53:37;4.47;;;2.62;;
62933;SDS011;49038;47.600;19.242;2023-06-10T04:56:39;2.92;;;1.80;;
62933;SDS011;49038;47.600;19.242;2023-06-10T04:59:42;5.05;;;2.65;;
62933;SDS011;49038;47.600;19.242;2023-06-10T05:02:44;6.03;;;2.45;;
62933;SDS011;49038;47.600;19.242;2023-06-10T05:05:47;3.72;;;2.55;;
62933;SDS011;49038;47.600;19.242;2023-06-10T05:08:49;4.15;;;1.90;;
62933;SDS011;49038;47.600;19.242;2023-06-10T05:11:51;2.37;;;1.87;;
62933;SDS011;49038;47.600;19.242;2023-06-10T05:14:55;2.58;;;1.75;;
62933;SDS011;49038;47.600;19.242;2023-06-10T05:17:57;3.92;;;2.10;;
62933;SDS011;49038;47.600;19.242;2023-06-10T05:21:00;3.83;;;2.25;;
62933;SDS011;49038;47.600;19.242;2023-06-10T05:24:04;3.60;;;2.70;;
62933;SDS011;49038;47.600;19.242;2023-06-10T05:27:06;3.85;;;1.83;;
62933;SDS011;49038;47.600;19.242;2023-06-10T05:30:10;4.60;;;2.25;;
62933;SDS011;49038;47.600;19.242;2023-06-10T05:33:13;2.28;;;1.87;;
62933;SDS011;49038;47.600;19.242;2023-06-10T05:36:15;2.45;;;2.00;;
62933;SDS011;49038;47.600;19.242;2023-06-10T05:39:17;3.90;;;2.67;;
62933;SDS011;49038;47.600;19.242;2023-06-10T05:42:19;3.80;;;3.25;;
62933;SDS011;49038;47.600;19.242;2023-06-10T05:45:22;3.40;;;2.47;;
62933;SDS011;49038;47.600;19.242;2023-06-10T05:48:24;3.67;;;2.60;;
62933;SDS011;49038;47.600;19.242;2023-06-10T05:51:26;3.97;;;2.47;;
62933;SDS011;49038;47.600;19.242;2023-06-10T05:54:30;6.37;;;2.87;;
62933;SDS011;49038;47.600;19.242;2023-06-10T05:57:32;4.40;;;2.60;;
62933;SDS011;49038;47.600;19.242;2023-06-10T06:00:34;4.15;;;2.40;;
62933;SDS011;49038;47.600;19.242;2023-06-10T06:03:39;2.83;;;2.15;;
62933;SDS011;49038;47.600;19.242;2023-06-10T06:06:41;4.28;;;2.90;;
62933;SDS011;49038;47.600;19.242;2023-06-10T06:09:44;4.60;;;2.78;;
62933;SDS011;49038;47.600;19.242;2023-06-10T06:12:46;5.12;;;3.62;;
62933;SDS011;49038;47.600;19.242;2023-06-10T06:15:48;4.60;;;3.05;;
62933;SDS011;49038;47.600;19.242;2023-06-10T06:18:50;3.92;;;3.15;;
62933;SDS011;49038;47.600;19.242;2023-06-10T06:21:53;6.57;;;3.62;;
62933;SDS011;49038;47.600;19.242;2023-06-10T06:24:55;4.20;;;2.85;;
62933;SDS011;49038;47.600;19.242;2023-06-10T06:27:58;5.85;;;3.45;;
62933;SDS011;49038;47.600;19.242;2023-06-10T06:31:00;5.25;;;3.28;;
62933;SDS011;49038;47.600;19.242;2023-06-10T06:34:02;8.20;;;4.05;;
62933;SDS011;49038;47.600;19.242;2023-06-10T06:37:04;6.80;;;4.68;;
62933;SDS011;49038;47.600;19.242;2023-06-10T06:40:07;7.22;;;3.83;;
62933;SDS011;49038;47.600;19.242;2023-06-10T06:43:10;4.53;;;3.95;;
62933;SDS011;49038;47.600;19.242;2023-06-10T06:46:12;7.47;;;4.60;;
62933;SDS011;49038;47.600;19.242;2023-06-10T06:49:18;7.72;;;4.90;;
62933;SDS011;49038;47.600;19.242;2023-06-10T06:52:20;6.75;;;4.50;;
62933;SDS011;49038;47.600;19.242;2023-06-10T06:55:24;8.55;;;4.90;;
62933;SDS011;49038;47.600;19.242;2023-06-10T06:58:26;9.70;;;5.80;;
62933;SDS011;49038;47.600;19.242;2023-06-10T07:01:28;6.30;;;4.50;;
62933;SDS011;49038;47.600;19.242;2023-06-10T07:04:30;7.68;;;4.75;;
62933;SDS011;49038;47.600;19.242;2023-06-10T07:07:33;13.32;;;4.28;;
62933;SDS011;49038;47.600;19.242;2023-06-10T07:10:35;9.05;;;4.90;;
62933;SDS011;49038;47.600;19.242;2023-06-10T07:13:37;8.48;;;4.93;;
62933;SDS011;49038;47.600;19.242;2023-06-10T07:16:40;6.97;;;4.30;;
62933;SDS011;49038;47.600;19.242;2023-06-10T07:19:42;10.30;;;6.55;;
62933;SDS011;49038;47.600;19.242;2023-06-10T07:22:44;8.88;;;5.45;;
62933;SDS011;49038;47.600;19.242;2023-06-10T07:25:46;7.40;;;4.93;;
62933;SDS011;49038;47.600;19.242;2023-06-10T07:28:49;18.70;;;5.28;;
62933;SDS011;49038;47.600;19.242;2023-06-10T07:31:51;7.25;;;4.82;;
62933;SDS011;49038;47.600;19.242;2023-06-10T07:34:55;8.07;;;4.87;;
62933;SDS011;49038;47.600;19.242;2023-06-10T07:37:57;8.32;;;4.18;;
62933;SDS011;49038;47.600;19.242;2023-06-10T07:40:59;8.02;;;5.03;;
62933;SDS011;49038;47.600;19.242;2023-06-10T07:44:02;9.45;;;4.47;;
62933;SDS011;49038;47.600;19.242;2023-06-10T07:47:04;7.93;;;4.72;;
62933;SDS011;49038;47.600;19.242;2023-06-10T07:50:07;8.07;;;4.95;;
62933;SDS011;49038;47.600;19.242;2023-06-10T07:53:09;6.68;;;4.35;;
62933;SDS011;49038;47.600;19.242;2023-06-10T07:56:11;6.00;;;3.70;;
62933;SDS011;49038;47.600;19.242;2023-06-10T07:59:14;5.45;;;4.22;;
62933;SDS011;49038;47.600;19.242;2023-06-10T08:02:16;7.60;;;4.82;;
62933;SDS011;49038;47.600;19.242;2023-06-10T08:05:18;5.62;;;4.03;;
62933;SDS011;49038;47.600;19.242;2023-06-10T08:08:22;7.22;;;4.57;;
62933;SDS011;49038;47.600;19.242;2023-06-10T08:11:24;6.85;;;4.53;;
62933;SDS011;49038;47.600;19.242;2023-06-10T08:14:29;6.57;;;4.75;;
62933;SDS011;49038;47.600;19.242;2023-06-10T08:17:32;11.55;;;4.82;;
62933;SDS011;49038;47.600;19.242;2023-06-10T08:20:34;6.20;;;4.22;;
62933;SDS011;49038;47.600;19.242;2023-06-10T08:23:36;6.82;;;4.32;;
62933;SDS011;49038;47.600;19.242;2023-06-10T08:26:39;5.35;;;3.67;;
62933;SDS011;49038;47.600;19.242;2023-06-10T08:29:41;5.68;;;4.10;;
62933;SDS011;49038;47.600;19.242;2023-06-10T08:32:44;4.93;;;3.90;;
62933;SDS011;49038;47.600;19.242;2023-06-10T08:35:46;5.50;;;4.03;;
62933;SDS011;49038;47.600;19.242;2023-06-10T08:38:48;6.22;;;4.12;;
62933;SDS011;49038;47.600;19.242;2023-06-10T08:42:00;5.37;;;4.03;;
62933;SDS011;49038;47.600;19.242;2023-06-10T08:45:21;5.73;;;4.03;;
62933;SDS011;49038;47.600;19.242;2023-06-10T08:48:24;7.93;;;4.80;;
62933;SDS011;49038;47.600;19.242;2023-06-10T08:51:29;6.22;;;4.47;;
62933;SDS011;49038;47.600;19.242;2023-06-10T08:54:33;6.03;;;4.07;;
62933;SDS011;49038;47.600;19.242;2023-06-10T08:57:40;7.85;;;4.78;;
62933;SDS011;49038;47.600;19.242;2023-06-10T09:00:43;6.57;;;4.50;;
62933;SDS011;49038;47.600;19.242;2023-06-10T09:03:46;4.95;;;4.07;;
62933;SDS011;49038;47.600;19.242;2023-06-10T09:06:49;6.90;;;4.50;;
62933;SDS011;49038;47.600;19.242;2023-06-10T09:09:52;6.35;;;4.70;;
62933;SDS011;49038;47.600;19.242;2023-06-10T09:12:55;6.25;;;4.75;;
62933;SDS011;49038;47.600;19.242;2023-06-10T09:15:58;6.25;;;4.40;;
62933;SDS011;49038;47.600;19.242;2023-06-10T09:19:03;6.32;;;4.75;;
62933;SDS011;49038;47.600;19.242;2023-06-10T09:22:09;5.35;;;4.40;;
62933;SDS011;49038;47.600;19.242;2023-06-10T09:25:12;7.87;;;4.35;;
62933;SDS011;49038;47.600;19.242;2023-06-10T09:28:15;6.25;;;4.43;;
62933;SDS011;49038;47.600;19.242;2023-06-10T09:31:18;5.87;;;4.15;;
62933;SDS011;49038;47.600;19.242;2023-06-10T09:34:25;6.00;;;4.50;;
62933;SDS011;49038;47.600;19.242;2023-06-10T09:37:28;5.78;;;4.50;;
62933;SDS011;49038;47.600;19.242;2023-06-10T09:40:30;6.53;;;4.87;;
62933;SDS011;49038;47.600;19.242;2023-06-10T09:43:43;6.87;;;5.18;;
62933;SDS011;49038;47.600;19.242;2023-06-10T09:46:48;7.05;;;5.40;;
62933;SDS011;49038;47.600;19.242;2023-06-10T09:49:51;6.22;;;4.87;;
62933;SDS011;49038;47.600;19.242;2023-06-10T09:52:55;8.32;;;5.72;;
62933;SDS011;49038;47.600;19.242;2023-06-10T09:55:57;7.93;;;5.40;;
62933;SDS011;49038;47.600;19.242;2023-06-10T09:59:00;7.75;;;6.00;;
62933;SDS011;49038;47.600;19.242;2023-06-10T10:02:02;8.18;;;5.75;;
62933;SDS011;49038;47.600;19.242;2023-06-10T10:05:09;7.70;;;5.78;;
62933;SDS011;49038;47.600;19.242;2023-06-10T10:08:11;7.87;;;5.65;;
62933;SDS011;49038;47.600;19.242;2023-06-10T10:11:17;5.35;;;4.57;;
62933;SDS011;49038;47.600;19.242;2023-06-10T10:14:21;5.55;;;4.12;;
62933;SDS011;49038;47.600;19.242;2023-06-10T10:17:24;6.30;;;4.43;;
62933;SDS011;49038;47.600;19.242;2023-06-10T10:20:29;7.90;;;4.90;;
62933;SDS011;49038;47.600;19.242;2023-06-10T10:23:40;6.20;;;4.80;;
62933;SDS011;49038;47.600;19.242;2023-06-10T10:26:54;6.22;;;4.55;;
62933;SDS011;49038;47.600;19.242;2023-06-10T10:29:58;6.82;;;4.75;;
62933;SDS011;49038;47.600;19.242;2023-06-10T10:33:04;5.15;;;4.65;;
62933;SDS011;49038;47.600;19.242;2023-06-10T10:36:11;5.20;;;4.10;;
62933;SDS011;49038;47.600;19.242;2023-06-10T10:39:14;6.45;;;4.07;;
62933;SDS011;49038;47.600;19.242;2023-06-10T10:42:17;4.55;;;3.85;;
62933;SDS011;49038;47.600;19.242;2023-06-10T10:45:21;4.57;;;3.72;;
62933;SDS011;49038;47.600;19.242;2023-06-10T10:48:23;5.22;;;3.75;;
62933;SDS011;49038;47.600;19.242;2023-06-10T10:51:25;4.75;;;4.07;;
62933;SDS011;49038;47.600;19.242;2023-06-10T10:54:31;6.05;;;3.53;;
62933;SDS011;49038;47.600;19.242;2023-06-10T10:57:35;4.12;;;3.10;;
62933;SDS011;49038;47.600;19.242;2023-06-10T11:00:44;3.15;;;2.85;;
62933;SDS011;49038;47.600;19.242;2023-06-10T11:03:47;3.30;;;2.50;;
62933;SDS011;49038;47.600;19.242;2023-06-10T11:06:54;2.67;;;2.05;;
62933;SDS011;49038;47.600;19.242;2023-06-10T11:10:00;4.35;;;2.47;;
62933;SDS011;49038;47.600;19.242;2023-06-10T11:13:25;4.87;;;1.90;;
62933;SDS011;49038;47.600;19.242;2023-06-10T11:16:25;2.58;;;1.95;;
62933;SDS011;49038;47.600;19.242;2023-06-10T11:19:35;1.67;;;1.40;;
62933;SDS011;49038;47.600;19.242;2023-06-10T11:22:58;2.03;;;1.83;;
62933;SDS011;49038;47.600;19.242;2023-06-10T11:29:34;1.77;;;1.50;;
62933;SDS011;49038;47.600;19.242;2023-06-10T11:32:37;1.65;;;1.52;;
62933;SDS011;49038;47.600;19.242;2023-06-10T11:35:39;2.00;;;1.45;;
62933;SDS011;49038;47.600;19.242;2023-06-10T11:38:41;2.00;;;1.60;;
62933;SDS011;49038;47.600;19.242;2023-06-10T11:41:45;2.28;;;1.10;;
62933;SDS011;49038;47.600;19.242;2023-06-10T11:44:50;1.73;;;1.25;;
62933;SDS011;49038;47.600;19.242;2023-06-10T11:47:57;1.37;;;1.10;;
62933;SDS011;49038;47.600;19.242;2023-06-10T11:50:59;1.60;;;1.20;;
62933;SDS011;49038;47.600;19.242;2023-06-10T11:54:02;1.65;;;1.35;;
62933;SDS011;49038;47.600;19.242;2023-06-10T11:57:05;3.33;;;1.50;;
62933;SDS011;49038;47.600;19.242;2023-06-10T12:00:10;1.60;;;1.20;;
62933;SDS011;49038;47.600;19.242;2023-06-10T12:03:13;1.33;;;1.20;;
62933;SDS011;49038;47.600;19.242;2023-06-10T12:06:15;1.50;;;1.40;;
62933;SDS011;49038;47.600;19.242;2023-06-10T12:09:21;1.33;;;1.23;;
62933;SDS011;49038;47.600;19.242;2023-06-10T12:12:29;1.58;;;1.37;;
62933;SDS011;49038;47.600;19.242;2023-06-10T12:15:31;2.45;;;1.73;;
62933;SDS011;49038;47.600;19.242;2023-06-10T12:18:34;1.50;;;1.40;;
62933;SDS011;49038;47.600;19.242;2023-06-10T12:21:36;1.42;;;1.33;;
62933;SDS011;49038;47.600;19.242;2023-06-10T12:24:45;1.92;;;1.70;;
62933;SDS011;49038;47.600;19.242;2023-06-10T12:27:51;1.55;;;1.42;;
62933;SDS011;49038;47.600;19.242;2023-06-10T12:31:07;2.20;;;1.55;;
62933;SDS011;49038;47.600;19.242;2023-06-10T12:34:09;1.70;;;1.40;;
62933;SDS011;49038;47.600;19.242;2023-06-10T12:37:12;2.15;;;1.90;;
62933;SDS011;49038;47.600;19.242;2023-06-10T12:40:18;2.83;;;1.80;;
62933;SDS011;49038;47.600;19.242;2023-06-10T12:43:31;2.15;;;1.77;;
62933;SDS011;49038;47.600;19.242;2023-06-10T12:46:37;2.78;;;2.25;;
62933;SDS011;49038;47.600;19.242;2023-06-10T12:49:40;2.20;;;2.00;;
62933;SDS011;49038;47.600;19.242;2023-06-10T12:52:42;2.60;;;2.22;;
62933;SDS011;49038;47.600;19.242;2023-06-10T12:55:45;2.70;;;2.30;;
62933;SDS011;49038;47.600;19.242;2023-06-10T12:58:47;2.58;;;2.20;;
62933;SDS011;49038;47.600;19.242;2023-06-10T13:01:53;2.60;;;2.33;;
62933;SDS011;49038;47.600;19.242;2023-06-10T13:04:56;5.43;;;2.53;;
62933;SDS011;49038;47.600;19.242;2023-06-10T13:08:00;3.80;;;2.80;;
62933;SDS011;49038;47.600;19.242;2023-06-10T13:11:02;3.55;;;2.55;;
62933;SDS011;49038;47.600;19.242;2023-06-10T13:14:04;3.20;;;2.50;;
62933;SDS011;49038;47.600;19.242;2023-06-10T13:17:07;5.32;;;2.85;;
62933;SDS011;49038;47.600;19.242;2023-06-10T13:20:10;2.83;;;1.90;;
62933;SDS011;49038;47.600;19.242;2023-06-10T13:23:12;2.62;;;1.90;;
62933;SDS011;49038;47.600;19.242;2023-06-10T13:26:15;2.60;;;1.87;;
62933;SDS011;49038;47.600;19.242;2023-06-10T13:29:18;3.50;;;1.70;;
62933;SDS011;49038;47.600;19.242;2023-06-10T13:32:20;2.50;;;1.98;;
62933;SDS011;49038;47.600;19.242;2023-06-10T13:35:23;9.43;;;1.67;;
62933;SDS011;49038;47.600;19.242;2023-06-10T13:38:25;2.65;;;2.00;;
62933;SDS011;49038;47.600;19.242;2023-06-10T13:41:27;3.28;;;1.55;;
62933;SDS011;49038;47.600;19.242;2023-06-10T13:44:30;2.00;;;1.67;;
62933;SDS011;49038;47.600;19.242;2023-06-10T13:47:35;1.42;;;1.33;;
62933;SDS011;49038;47.600;19.242;2023-06-10T13:50:37;2.53;;;2.10;;
62933;SDS011;49038;47.600;19.242;2023-06-10T13:53:40;2.67;;;2.20;;
62933;SDS011;49038;47.600;19.242;2023-06-10T13:56:42;2.10;;;1.90;;
62933;SDS011;49038;47.600;19.242;2023-06-10T13:59:44;6.62;;;2.67;;
62933;SDS011;49038;47.600;19.242;2023-06-10T14:02:47;2.75;;;1.85;;
62933;SDS011;49038;47.600;19.242;2023-06-10T14:05:49;3.78;;;2.45;;
62933;SDS011;49038;47.600;19.242;2023-06-10T14:08:51;2.03;;;1.83;;
62933;SDS011;49038;47.600;19.242;2023-06-10T14:11:56;2.00;;;1.80;;
62933;SDS011;49038;47.600;19.242;2023-06-10T14:14:58;2.37;;;2.15;;
62933;SDS011;49038;47.600;19.242;2023-06-10T14:18:01;3.55;;;2.00;;
62933;SDS011;49038;47.600;19.242;2023-06-10T14:21:03;1.52;;;1.42;;
62933;SDS011;49038;47.600;19.242;2023-06-10T14:24:06;3.78;;;2.10;;
62933;SDS011;49038;47.600;19.242;2023-06-10T14:27:08;2.42;;;1.55;;
62933;SDS011;49038;47.600;19.242;2023-06-10T14:30:10;1.90;;;1.70;;
62933;SDS011;49038;47.600;19.242;2023-06-10T14:33:13;2.42;;;1.90;;
62933;SDS011;49038;47.600;19.242;2023-06-10T14:36:15;2.15;;;1.62;;
62933;SDS011;49038;47.600;19.242;2023-06-10T14:39:18;1.92;;;1.58;;
62933;SDS011;49038;47.600;19.242;2023-06-10T14:42:20;2.15;;;1.52;;
62933;SDS011;49038;47.600;19.242;2023-06-10T14:45:22;1.50;;;1.37;;
62933;SDS011;49038;47.600;19.242;2023-06-10T14:48:24;1.65;;;1.30;;
62933;SDS011;49038;47.600;19.242;2023-06-10T14:51:27;1.65;;;1.12;;
62933;SDS011;49038;47.600;19.242;2023-06-10T14:54:29;8.98;;;1.50;;
62933;SDS011;49038;47.600;19.242;2023-06-10T14:57:35;1.30;;;1.20;;
62933;SDS011;49038;47.600;19.242;2023-06-10T15:00:38;2.35;;;1.35;;
62933;SDS011;49038;47.600;19.242;2023-06-10T15:03:40;1.52;;;1.30;;
62933;SDS011;49038;47.600;19.242;2023-06-10T15:06:42;2.47;;;1.23;;
62933;SDS011;49038;47.600;19.242;2023-06-10T15:09:45;1.45;;;1.15;;
62933;SDS011;49038;47.600;19.242;2023-06-10T15:12:47;1.20;;;1.10;;
62933;SDS011;49038;47.600;19.242;2023-06-10T15:15:50;2.20;;;1.23;;
62933;SDS011;49038;47.600;19.242;2023-06-10T15:18:52;4.12;;;1.58;;
62933;SDS011;49038;47.600;19.242;2023-06-10T15:21:54;3.58;;;1.52;;
62933;SDS011;49038;47.600;19.242;2023-06-10T15:24:56;2.80;;;1.77;;
62933;SDS011;49038;47.600;19.242;2023-06-10T15:27:59;1.20;;;1.05;;
62933;SDS011;49038;47.600;19.242;2023-06-10T15:31:01;2.45;;;1.62;;
62933;SDS011;49038;47.600;19.242;2023-06-10T15:34:04;1.65;;;1.37;;
62933;SDS011;49038;47.600;19.242;2023-06-10T15:37:06;2.33;;;1.67;;
62933;SDS011;49038;47.600;19.242;2023-06-10T15:40:08;2.42;;;1.45;;
62933;SDS011;49038;47.600;19.242;2023-06-10T15:43:11;2.50;;;1.75;;
62933;SDS011;49038;47.600;19.242;2023-06-10T15:46:15;2.30;;;1.65;;
62933;SDS011;49038;47.600;19.242;2023-06-10T15:49:17;1.62;;;1.50;;
62933;SDS011;49038;47.600;19.242;2023-06-10T15:52:19;1.92;;;1.62;;
62933;SDS011;49038;47.600;19.242;2023-06-10T15:55:21;2.30;;;1.80;;
62933;SDS011;49038;47.600;19.242;2023-06-10T15:58:24;2.62;;;1.45;;
62933;SDS011;49038;47.600;19.242;2023-06-10T16:01:27;4.00;;;1.70;;
62933;SDS011;49038;47.600;19.242;2023-06-10T16:04:29;3.08;;;2.28;;
62933;SDS011;49038;47.600;19.242;2023-06-10T16:07:31;2.20;;;1.48;;
62933;SDS011;49038;47.600;19.242;2023-06-10T16:10:34;3.15;;;2.40;;
62933;SDS011;49038;47.600;19.242;2023-06-10T16:13:36;1.58;;;1.42;;
62933;SDS011;49038;47.600;19.242;2023-06-10T16:16:42;2.78;;;1.65;;
62933;SDS011;49038;47.600;19.242;2023-06-10T16:19:44;1.83;;;1.60;;
62933;SDS011;49038;47.600;19.242;2023-06-10T16:22:46;2.85;;;1.50;;
62933;SDS011;49038;47.600;19.242;2023-06-10T16:25:48;2.08;;;1.60;;
62933;SDS011;49038;47.600;19.242;2023-06-10T16:28:51;1.90;;;1.50;;
62933;SDS011;49038;47.600;19.242;2023-06-10T16:31:53;3.97;;;1.70;;
62933;SDS011;49038;47.600;19.242;2023-06-10T16:34:56;2.72;;;2.10;;
62933;SDS011;49038;47.600;19.242;2023-06-10T16:37:58;3.75;;;1.77;;
62933;SDS011;49038;47.600;19.242;2023-06-10T16:41:04;2.30;;;1.92;;
62933;SDS011;49038;47.600;19.242;2023-06-10T16:44:06;2.40;;;1.80;;
62933;SDS011;49038;47.600;19.242;2023-06-10T16:47:08;2.70;;;1.80;;
62933;SDS011;49038;47.600;19.242;2023-06-10T16:50:11;2.67;;;1.98;;
62933;SDS011;49038;47.600;19.242;2023-06-10T16:53:13;3.90;;;1.87;;
62933;SDS011;49038;47.600;19.242;2023-06-10T16:56:16;3.95;;;1.73;;
62933;SDS011;49038;47.600;19.242;2023-06-10T16:59:18;2.42;;;2.03;;
62933;SDS011;49038;47.600;19.242;2023-06-10T17:02:20;4.07;;;2.15;;
62933;SDS011;49038;47.600;19.242;2023-06-10T17:05:22;2.95;;;2.00;;
62933;SDS011;49038;47.600;19.242;2023-06-10T17:08:25;5.62;;;2.00;;
62933;SDS011;49038;47.600;19.242;2023-06-10T17:11:27;7.22;;;2.40;;
62933;SDS011;49038;47.600;19.242;2023-06-10T17:14:30;2.85;;;2.28;;
62933;SDS011;49038;47.600;19.242;2023-06-10T17:17:32;4.28;;;2.55;;
62933;SDS011;49038;47.600;19.242;2023-06-10T17:20:35;4.22;;;2.08;;
62933;SDS011;49038;47.600;19.242;2023-06-10T17:23:38;2.90;;;1.90;;
62933;SDS011;49038;47.600;19.242;2023-06-10T17:26:40;3.10;;;2.08;;
62933;SDS011;49038;47.600;19.242;2023-06-10T17:29:42;4.65;;;2.17;;
62933;SDS011;49038;47.600;19.242;2023-06-10T17:32:44;3.42;;;1.87;;
62933;SDS011;49038;47.600;19.242;2023-06-10T17:35:47;3.33;;;2.25;;
62933;SDS011;49038;47.600;19.242;2023-06-10T17:38:50;5.28;;;2.30;;
62933;SDS011;49038;47.600;19.242;2023-06-10T17:41:53;2.92;;;2.05;;
62933;SDS011;49038;47.600;19.242;2023-06-10T17:44:55;2.72;;;2.17;;
62933;SDS011;49038;47.600;19.242;2023-06-10T17:47:57;3.12;;;2.20;;
62933;SDS011;49038;47.600;19.242;2023-06-10T17:50:59;3.78;;;2.00;;
62933;SDS011;49038;47.600;19.242;2023-06-10T17:54:02;2.67;;;2.12;;
62933;SDS011;49038;47.600;19.242;2023-06-10T17:57:05;3.22;;;2.35;;
62933;SDS011;49038;47.600;19.242;2023-06-10T18:00:07;3.50;;;2.80;;
62933;SDS011;49038;47.600;19.242;2023-06-10T18:03:10;4.12;;;2.45;;
62933;SDS011;49038;47.600;19.242;2023-06-10T18:06:12;4.37;;;2.50;;
62933;SDS011;49038;47.600;19.242;2023-06-10T18:09:14;5.32;;;2.65;;
62933;SDS011;49038;47.600;19.242;2023-06-10T18:12:17;7.65;;;2.55;;